Time;durP1;ratioP1;P1;durP2;ratioP2;P2;SDS_P1;SDS_P2;PMS_P1;PMS_P2;Temp;Humidity;BMP_temperature;BMP_pressure;BME280_temperature;BME280_humidity;BME280_pressure;Samples;Min_cycle;Max_cycle;Signal;HPM_P1;HPM_P2
2023/02/12 00:01:12;;;;;;;20.25;11.93;;;4.70;99.90;;;;;;5110207;28;20195;-72
2023/02/12 00:03:39;;;;;;;20.13;12.80;;;4.70;99.90;;;;;;5109826;28;20194;-72
2023/02/12 00:06:07;;;;;;;20.10;10.75;;;4.70;99.90;;;;;;5110435;28;20223;-72
2023/02/12 00:08:35;;;;;;;16.55;11.70;;;4.70;99.90;;;;;;5110595;28;20286;-71
2023/02/12 00:11:08;;;;;;;20.00;11.20;;;4.80;99.90;;;;;;5110057;28;20199;-71
2023/02/12 00:13:35;;;;;;;22.90;13.30;;;4.80;99.90;;;;;;5109708;28;20219;-71
2023/02/12 00:16:04;;;;;;;15.48;11.05;;;4.80;99.90;;;;;;5110874;28;20742;-71
2023/02/12 00:18:31;;;;;;;17.77;10.95;;;4.80;99.90;;;;;;5111145;28;20200;-72
2023/02/12 00:20:59;;;;;;;19.38;10.50;;;4.80;99.90;;;;;;5110869;28;20253;-71
2023/02/12 00:23:26;;;;;;;16.45;11.27;;;4.80;99.90;;;;;;5110405;28;20666;-71
2023/02/12 00:25:54;;;;;;;17.20;10.10;;;4.80;99.90;;;;;;5110186;28;20203;-71
2023/02/12 00:28:21;;;;;;;15.68;9.98;;;4.80;99.90;;;;;;5110722;28;20227;-71
2023/02/12 00:30:47;;;;;;;17.38;8.95;;;4.70;99.90;;;;;;5110708;28;20203;-71
2023/02/12 00:33:14;;;;;;;14.02;9.40;;;4.70;99.90;;;;;;5110291;28;20222;-71
2023/02/12 00:35:41;;;;;;;14.90;10.52;;;4.70;99.90;;;;;;5110476;28;20203;-71
2023/02/12 00:38:07;;;;;;;14.13;9.60;;;4.70;99.90;;;;;;5110628;28;20195;-71
2023/02/12 00:40:34;;;;;;;13.55;8.85;;;4.70;99.90;;;;;;5110538;28;20256;-71
2023/02/12 00:43:02;;;;;;;15.18;8.65;;;4.70;99.90;;;;;;5110542;28;20260;-71
2023/02/12 00:45:28;;;;;;;13.20;8.25;;;4.70;99.90;;;;;;5110756;28;20203;-71
2023/02/12 00:47:55;;;;;;;14.23;10.85;;;4.60;99.90;;;;;;5112750;28;20222;-71
2023/02/12 00:50:22;;;;;;;14.15;8.60;;;4.60;99.90;;;;;;5114387;28;20260;-71
2023/02/12 00:52:48;;;;;;;17.33;9.70;;;4.60;99.90;;;;;;5113899;28;20214;-71
2023/02/12 00:55:15;;;;;;;11.98;8.30;;;4.60;99.90;;;;;;5113899;28;20206;-71
2023/02/12 00:57:42;;;;;;;10.25;8.77;;;4.50;99.90;;;;;;5114081;28;20229;-71
2023/02/12 01:00:12;;;;;;;12.55;9.35;;;4.50;99.90;;;;;;5113703;28;20199;-71
2023/02/12 01:02:38;;;;;;;11.98;8.48;;;4.40;99.90;;;;;;5113811;28;20606;-71
2023/02/12 01:05:06;;;;;;;12.95;8.60;;;4.40;99.90;;;;;;5113426;28;20195;-71
2023/02/12 01:07:32;;;;;;;14.90;9.60;;;4.40;99.90;;;;;;5113760;28;20219;-71
2023/02/12 01:09:59;;;;;;;12.82;9.05;;;4.40;99.90;;;;;;5113099;28;20191;-71
2023/02/12 01:12:26;;;;;;;20.45;9.65;;;4.40;99.90;;;;;;5113359;28;20199;-71
2023/02/12 01:14:52;;;;;;;15.07;8.77;;;4.40;99.90;;;;;;5112925;28;20207;-71
2023/02/12 01:17:20;;;;;;;15.52;9.35;;;4.30;99.90;;;;;;5113397;28;20608;-71
2023/02/12 01:19:47;;;;;;;16.55;9.82;;;4.30;99.90;;;;;;5113493;28;20608;-72
2023/02/12 01:22:14;;;;;;;15.90;9.50;;;4.30;99.90;;;;;;5113252;28;20203;-71
2023/02/12 01:24:40;;;;;;;12.88;9.27;;;4.30;99.90;;;;;;5112862;28;20241;-71
2023/02/12 01:27:07;;;;;;;16.45;9.10;;;4.30;99.90;;;;;;5113072;28;20227;-71
2023/02/12 01:29:34;;;;;;;12.68;8.80;;;4.30;99.90;;;;;;5113058;28;20207;-71
2023/02/12 01:32:00;;;;;;;18.90;11.38;;;4.40;99.90;;;;;;5112629;28;20203;-72
2023/02/12 01:34:28;;;;;;;12.48;9.30;;;4.40;99.90;;;;;;5112980;28;20625;-71
2023/02/12 01:36:55;;;;;;;13.80;8.75;;;4.30;99.90;;;;;;5113043;28;20215;-71
2023/02/12 01:39:22;;;;;;;15.75;10.45;;;4.30;99.90;;;;;;5113545;28;20260;-71
2023/02/12 01:41:49;;;;;;;12.25;9.05;;;4.30;99.90;;;;;;5113037;28;20293;-72
2023/02/12 01:44:18;;;;;;;12.65;8.45;;;4.30;99.90;;;;;;5113186;28;20195;-71
2023/02/12 01:46:46;;;;;;;13.50;8.75;;;4.30;99.90;;;;;;5113293;28;20662;-71
2023/02/12 01:49:18;;;;;;;16.42;10.23;;;4.30;99.90;;;;;;5113395;28;20207;-71
2023/02/12 01:51:49;;;;;;;15.88;10.32;;;4.30;99.90;;;;;;5112947;28;20203;-71
2023/02/12 01:54:19;;;;;;;17.60;9.57;;;4.30;99.90;;;;;;5112496;28;20230;-71
2023/02/12 01:56:46;;;;;;;12.15;8.77;;;4.30;99.90;;;;;;5113152;28;20223;-71
2023/02/12 01:59:13;;;;;;;17.40;9.77;;;4.30;99.90;;;;;;5112753;28;20658;-71
2023/02/12 02:01:40;;;;;;;13.68;9.10;;;4.30;99.90;;;;;;5112765;28;20210;-71
2023/02/12 02:04:11;;;;;;;18.25;10.95;;;4.30;99.90;;;;;;5112516;28;20203;-71
2023/02/12 02:06:44;;;;;;;13.43;10.38;;;4.20;99.90;;;;;;5112771;28;20219;-71
2023/02/12 02:09:12;;;;;;;12.48;9.30;;;4.20;99.90;;;;;;5112602;28;20547;-71
2023/02/12 02:14:32;;;;;;;13.77;9.80;;;4.20;99.90;;;;;;5112594;28;20246;-71
2023/02/12 02:17:32;;;;;;;12.57;8.80;;;4.20;99.90;;;;;;5112494;28;20224;-71
2023/02/12 02:20:37;;;;;;;16.27;9.95;;;4.30;99.90;;;;;;5112476;27;20204;-71
2023/02/12 02:23:34;;;;;;;13.65;9.48;;;4.20;99.90;;;;;;5111862;28;20218;-72
2023/02/12 02:26:27;;;;;;;12.25;8.80;;;4.20;99.90;;;;;;5111833;28;20763;-71
2023/02/12 02:29:04;;;;;;;18.33;11.18;;;4.30;99.90;;;;;;5109498;28;20199;-72
2023/02/12 02:31:37;;;;;;;16.52;9.77;;;4.30;99.90;;;;;;5112069;28;20840;-72
2023/02/12 02:34:11;;;;;;;14.77;9.65;;;4.30;99.90;;;;;;5111728;28;20226;-71
2023/02/12 02:36:43;;;;;;;13.93;9.20;;;4.30;99.90;;;;;;5111978;28;20276;-72
2023/02/12 02:39:16;;;;;;;16.63;10.55;;;4.30;99.90;;;;;;5112023;28;20206;-71
2023/02/12 02:41:47;;;;;;;12.90;9.30;;;4.30;99.90;;;;;;5111846;28;20201;-72
2023/02/12 02:44:18;;;;;;;14.45;9.75;;;4.30;99.90;;;;;;5111807;28;20199;-71
2023/02/12 02:46:48;;;;;;;14.65;8.85;;;4.20;99.90;;;;;;5111785;28;20596;-72
2023/02/12 02:49:21;;;;;;;16.60;10.07;;;4.30;99.90;;;;;;5111898;28;20226;-71
2023/02/12 02:51:50;;;;;;;16.98;9.75;;;4.20;99.90;;;;;;5111760;28;20609;-71
2023/02/12 02:54:21;;;;;;;15.40;10.40;;;4.30;99.90;;;;;;5111560;28;20636;-71
2023/02/12 02:56:52;;;;;;;15.18;9.75;;;4.30;99.90;;;;;;5111831;28;20222;-71
2023/02/12 02:59:23;;;;;;;18.48;11.30;;;4.30;99.90;;;;;;5111832;28;20206;-71
2023/02/12 03:01:57;;;;;;;16.33;10.18;;;4.30;99.90;;;;;;5111589;28;20244;-71
2023/02/12 03:04:31;;;;;;;18.75;11.82;;;4.30;99.90;;;;;;5111514;28;20594;-71
2023/02/12 03:07:02;;;;;;;15.82;10.05;;;4.30;99.90;;;;;;5111684;28;20250;-72
2023/02/12 03:09:34;;;;;;;15.52;9.98;;;4.30;99.90;;;;;;5111254;28;20203;-71
2023/02/12 03:12:06;;;;;;;14.82;9.40;;;4.30;99.90;;;;;;5111651;28;20591;-71
2023/02/12 03:14:38;;;;;;;16.63;9.55;;;4.40;99.90;;;;;;5111409;28;20248;-71
2023/02/12 03:17:10;;;;;;;15.20;10.38;;;4.40;99.90;;;;;;5111293;28;20226;-71
2023/02/12 03:19:41;;;;;;;14.70;9.07;;;4.40;99.90;;;;;;5111619;28;20199;-71
2023/02/12 03:22:12;;;;;;;13.40;9.80;;;4.40;99.90;;;;;;5111246;28;20854;-71
2023/02/12 03:24:42;;;;;;;14.80;9.55;;;4.30;99.90;;;;;;5111235;28;20284;-71
2023/02/12 03:27:14;;;;;;;14.25;9.30;;;4.30;99.90;;;;;;5111185;28;20643;-71
2023/02/12 03:29:41;;;;;;;17.92;10.20;;;4.30;99.90;;;;;;5111369;28;20210;-71
2023/02/12 03:32:20;;;;;;;15.15;9.23;;;4.30;99.90;;;;;;5111070;28;20933;-71
2023/02/12 03:34:51;;;;;;;13.38;9.77;;;4.20;99.90;;;;;;5111053;28;20238;-71
2023/02/12 03:37:23;;;;;;;16.60;9.52;;;4.20;99.90;;;;;;5111343;28;20223;-71
2023/02/12 03:39:54;;;;;;;14.50;8.75;;;4.20;99.90;;;;;;5111202;28;20253;-71
2023/02/12 03:42:30;;;;;;;17.75;10.07;;;4.20;99.90;;;;;;5111067;28;20202;-71
2023/02/12 03:45:01;;;;;;;14.38;9.50;;;4.20;99.90;;;;;;5110751;28;20719;-71
2023/02/12 03:47:39;;;;;;;16.10;9.90;;;4.20;99.90;;;;;;5111204;28;20223;-71
2023/02/12 03:50:10;;;;;;;13.00;10.25;;;4.20;99.90;;;;;;5111001;28;20201;-71
2023/02/12 03:52:37;;;;;;;16.65;10.48;;;4.20;99.90;;;;;;5110977;28;20199;-71
2023/02/12 03:55:05;;;;;;;15.73;10.15;;;4.20;99.90;;;;;;5110407;28;20218;-71
2023/02/12 03:57:38;;;;;;;16.73;9.95;;;4.10;99.90;;;;;;5110926;28;20215;-71
2023/02/12 04:00:09;;;;;;;17.80;10.70;;;4.10;99.90;;;;;;5110022;28;20545;-71
2023/02/12 04:02:37;;;;;;;13.73;8.98;;;4.10;99.90;;;;;;5108772;28;20199;-71
2023/02/12 04:05:05;;;;;;;17.58;11.00;;;4.10;99.90;;;;;;5109488;28;20199;-71
2023/02/12 04:07:32;;;;;;;14.30;10.95;;;4.20;99.90;;;;;;5109963;28;20310;-71
2023/02/12 04:09:58;;;;;;;15.13;9.55;;;4.20;99.90;;;;;;5110413;28;20203;-71
2023/02/12 04:12:34;;;;;;;19.80;10.95;;;4.20;99.90;;;;;;5110799;28;20248;-71
2023/02/12 04:15:15;;;;;;;14.70;9.82;;;4.20;99.90;;;;;;5110445;28;20310;-71
2023/02/12 04:17:51;;;;;;;15.45;10.40;;;4.20;99.90;;;;;;5110889;28;20219;-71
2023/02/12 04:20:26;;;;;;;18.90;10.98;;;4.20;99.90;;;;;;5110837;28;20199;-72
2023/02/12 04:23:01;;;;;;;18.17;11.32;;;4.20;99.90;;;;;;5112644;28;20626;-71
2023/02/12 04:25:44;;;;;;;13.13;8.90;;;4.20;99.90;;;;;;5114754;28;20199;-72
2023/02/12 04:28:19;;;;;;;18.98;10.85;;;4.20;99.90;;;;;;5114986;27;20202;-72
2023/02/12 04:30:55;;;;;;;17.15;10.57;;;4.10;99.90;;;;;;5114647;28;20259;-71
2023/02/12 04:33:27;;;;;;;15.13;10.43;;;4.10;99.90;;;;;;5114508;28;20194;-72
2023/02/12 04:35:59;;;;;;;20.02;11.80;;;4.10;99.90;;;;;;5113946;28;20225;-72
2023/02/12 04:38:31;;;;;;;18.17;10.63;;;4.20;99.90;;;;;;5114675;28;20723;-72
2023/02/12 04:40:58;;;;;;;14.70;9.70;;;4.20;99.90;;;;;;5114281;27;20199;-71
2023/02/12 04:43:29;;;;;;;17.15;11.38;;;4.10;99.90;;;;;;5114136;28;20206;-71
2023/02/12 04:45:56;;;;;;;14.50;9.90;;;4.10;99.90;;;;;;5113701;28;20215;-71
2023/02/12 04:48:24;;;;;;;15.07;11.27;;;4.10;99.90;;;;;;5114130;28;20731;-72
2023/02/12 04:50:51;;;;;;;24.10;10.20;;;4.10;99.90;;;;;;5113683;28;20203;-72
2023/02/12 04:53:18;;;;;;;18.88;10.65;;;4.10;99.90;;;;;;5114009;28;20244;-71
2023/02/12 04:55:44;;;;;;;13.90;9.73;;;4.10;99.90;;;;;;5113563;28;20214;-71
2023/02/12 04:58:11;;;;;;;15.80;11.38;;;4.10;99.90;;;;;;5114174;28;20620;-71
2023/02/12 05:00:38;;;;;;;18.10;10.63;;;4.10;99.90;;;;;;5114178;27;20203;-71
2023/02/12 05:03:05;;;;;;;16.17;10.27;;;4.20;99.90;;;;;;5113432;28;20203;-71
2023/02/12 05:05:33;;;;;;;17.27;11.70;;;4.10;99.90;;;;;;5113772;28;20199;-71
2023/02/12 05:08:00;;;;;;;15.63;9.57;;;4.10;99.90;;;;;;5114042;28;20244;-71
2023/02/12 05:10:27;;;;;;;16.98;9.85;;;4.10;99.90;;;;;;5114138;28;20225;-71
2023/02/12 05:12:54;;;;;;;17.48;9.73;;;4.10;99.90;;;;;;5113452;28;20203;-71
2023/02/12 05:15:22;;;;;;;17.83;11.50;;;4.20;99.90;;;;;;5113754;28;20219;-71
2023/02/12 05:17:48;;;;;;;15.63;10.30;;;4.20;99.90;;;;;;5113983;28;20219;-72
2023/02/12 05:20:15;;;;;;;12.80;10.20;;;4.20;99.90;;;;;;5113582;28;20251;-71
2023/02/12 05:22:43;;;;;;;13.50;10.00;;;4.20;99.90;;;;;;5113783;28;20232;-72
2023/02/12 05:25:10;;;;;;;15.85;10.77;;;4.20;99.90;;;;;;5113592;28;20620;-71
2023/02/12 05:27:37;;;;;;;17.02;11.45;;;4.20;99.90;;;;;;5113839;28;20226;-72
2023/02/12 05:30:05;;;;;;;18.17;10.85;;;4.20;99.90;;;;;;5113231;28;20670;-72
2023/02/12 05:32:31;;;;;;;15.70;10.40;;;4.20;99.90;;;;;;5112895;28;20203;-72
2023/02/12 05:34:58;;;;;;;18.20;12.57;;;4.20;99.90;;;;;;5113144;28;20215;-72
2023/02/12 05:37:25;;;;;;;20.60;12.68;;;4.20;99.90;;;;;;5113390;28;20219;-72
2023/02/12 05:39:53;;;;;;;19.42;10.38;;;4.20;99.90;;;;;;5113174;28;20199;-72
2023/02/12 05:42:20;;;;;;;15.95;11.27;;;4.10;99.90;;;;;;5113361;28;20609;-72
2023/02/12 05:44:47;;;;;;;17.58;10.30;;;4.10;99.90;;;;;;5113368;28;20192;-71
2023/02/12 05:47:13;;;;;;;13.85;8.88;;;4.00;99.90;;;;;;5113160;28;20223;-71
2023/02/12 05:49:41;;;;;;;18.88;11.38;;;4.00;99.90;;;;;;5113225;28;20226;-72
2023/02/12 05:52:08;;;;;;;15.75;9.32;;;3.90;99.90;;;;;;5113493;28;20229;-71
2023/02/12 05:54:34;;;;;;;21.42;11.18;;;3.90;99.90;;;;;;5112948;28;20215;-72
2023/02/12 05:57:02;;;;;;;18.52;12.27;;;3.90;99.90;;;;;;5112309;28;20276;-72
2023/02/12 05:59:29;;;;;;;16.15;11.13;;;3.90;99.90;;;;;;5112120;28;20195;-72
2023/02/12 06:01:56;;;;;;;19.17;11.15;;;4.00;99.90;;;;;;5112451;28;20188;-71
2023/02/12 06:04:25;;;;;;;18.70;10.70;;;4.00;99.90;;;;;;5112700;28;20187;-72
2023/02/12 06:06:52;;;;;;;17.13;11.80;;;4.00;99.90;;;;;;5112727;27;20248;-71
2023/02/12 06:09:19;;;;;;;17.10;12.07;;;4.00;99.90;;;;;;5112519;28;20658;-72
2023/02/12 06:11:46;;;;;;;15.25;11.48;;;4.00;99.90;;;;;;5112242;28;20200;-71
2023/02/12 06:14:16;;;;;;;15.02;11.40;;;4.10;99.90;;;;;;5111739;28;20214;-72
2023/02/12 06:16:44;;;;;;;15.68;9.52;;;4.00;99.90;;;;;;5112004;28;20219;-72
2023/02/12 06:19:11;;;;;;;14.10;10.45;;;4.00;99.90;;;;;;5111104;28;20214;-72
2023/02/12 06:21:38;;;;;;;15.77;10.18;;;3.90;99.90;;;;;;5110861;27;20240;-72
2023/02/12 06:24:05;;;;;;;14.02;10.20;;;3.90;99.90;;;;;;5110948;28;20239;-72
2023/02/12 06:26:32;;;;;;;14.15;9.98;;;3.90;99.90;;;;;;5111778;28;20259;-72
2023/02/12 06:28:58;;;;;;;17.95;11.65;;;3.90;99.90;;;;;;5110472;28;20195;-72
2023/02/12 06:31:28;;;;;;;15.77;10.13;;;3.90;99.90;;;;;;5110615;28;20203;-72
2023/02/12 06:33:56;;;;;;;17.23;10.85;;;3.90;99.90;;;;;;5108004;28;20191;-72
2023/02/12 06:36:24;;;;;;;17.33;10.25;;;3.90;99.90;;;;;;5110541;28;20223;-72
2023/02/12 06:38:51;;;;;;;18.42;10.63;;;3.90;99.90;;;;;;5110623;28;20194;-72
2023/02/12 06:41:18;;;;;;;16.90;10.68;;;4.00;99.90;;;;;;5111495;27;20575;-72
2023/02/12 06:43:45;;;;;;;15.48;9.85;;;4.00;99.90;;;;;;5110565;28;20610;-72
2023/02/12 06:46:12;;;;;;;18.25;9.60;;;3.90;99.90;;;;;;5109582;28;20214;-73
2023/02/12 06:48:40;;;;;;;16.75;11.10;;;3.90;99.90;;;;;;5110488;28;20650;-72
2023/02/12 06:51:08;;;;;;;14.13;10.15;;;4.00;99.90;;;;;;5110500;28;20195;-72
2023/02/12 06:53:35;;;;;;;19.67;10.82;;;4.00;99.90;;;;;;5107989;28;20199;-72
2023/02/12 06:56:03;;;;;;;17.25;10.90;;;3.90;99.90;;;;;;5109734;28;20215;-72
2023/02/12 06:58:29;;;;;;;18.75;10.25;;;3.90;99.90;;;;;;5110415;28;20220;-71
2023/02/12 07:00:56;;;;;;;16.30;11.43;;;3.90;99.90;;;;;;5110342;28;20506;-71
2023/02/12 07:03:23;;;;;;;17.00;11.02;;;4.00;99.90;;;;;;5110136;28;20199;-71
2023/02/12 07:05:51;;;;;;;15.65;10.65;;;4.00;99.90;;;;;;5109487;28;20569;-72
2023/02/12 07:08:17;;;;;;;19.42;12.90;;;4.00;99.90;;;;;;5109823;28;20573;-72
2023/02/12 07:10:49;;;;;;;17.23;12.13;;;4.10;99.90;;;;;;5109737;28;20688;-73
2023/02/12 07:13:16;;;;;;;18.83;12.63;;;4.10;99.90;;;;;;5107288;28;20282;-73
2023/02/12 07:15:43;;;;;;;25.15;13.65;;;4.10;99.90;;;;;;5109754;28;20215;-72
2023/02/12 07:18:09;;;;;;;19.88;12.52;;;4.20;99.90;;;;;;5109811;28;20271;-73
2023/02/12 07:20:36;;;;;;;17.23;11.88;;;4.20;99.90;;;;;;5109763;28;20296;-72
2023/02/12 07:23:04;;;;;;;20.58;11.52;;;4.30;99.90;;;;;;5109424;28;20327;-72
2023/02/12 07:25:30;;;;;;;18.98;11.75;;;4.30;99.90;;;;;;5109901;28;20184;-72
2023/02/12 07:27:57;;;;;;;21.00;12.45;;;4.40;99.90;;;;;;5109616;28;20215;-72
2023/02/12 07:30:24;;;;;;;16.27;10.85;;;4.50;99.90;;;;;;5109966;28;20198;-72
2023/02/12 07:32:50;;;;;;;22.58;15.20;;;4.60;99.90;;;;;;5110038;28;20451;-73
2023/02/12 07:35:17;;;;;;;25.63;13.60;;;4.60;99.90;;;;;;5110387;28;20222;-73
2023/02/12 07:37:44;;;;;;;19.23;12.77;;;4.70;99.90;;;;;;5110964;28;20276;-72
2023/02/12 07:40:12;;;;;;;18.33;11.63;;;4.80;99.90;;;;;;5110873;28;20199;-74
2023/02/12 07:42:39;;;;;;;18.75;11.70;;;4.90;99.90;;;;;;5110952;28;20624;-74
2023/02/12 07:45:07;;;;;;;18.30;11.07;;;4.90;99.90;;;;;;5110603;28;20247;-75
2023/02/12 07:47:34;;;;;;;17.80;11.10;;;4.90;99.90;;;;;;5111009;28;20631;-74
2023/02/12 07:50:01;;;;;;;18.65;12.10;;;4.90;99.90;;;;;;5111213;28;20673;-74
2023/02/12 07:52:27;;;;;;;16.50;11.23;;;4.80;99.90;;;;;;5110796;28;20199;-74
2023/02/12 07:54:54;;;;;;;17.58;11.18;;;4.80;99.90;;;;;;5109495;28;20222;-74
2023/02/12 07:57:22;;;;;;;20.38;13.10;;;4.70;99.90;;;;;;5112486;28;20211;-74
2023/02/12 07:59:49;;;;;;;17.25;11.95;;;4.80;99.90;;;;;;5114183;28;20199;-74
2023/02/12 08:02:15;;;;;;;20.42;13.32;;;4.80;99.90;;;;;;5114394;28;20628;-74
2023/02/12 08:04:42;;;;;;;20.05;13.05;;;4.70;99.90;;;;;;5114418;28;20658;-74
2023/02/12 08:07:09;;;;;;;24.27;14.27;;;4.80;99.90;;;;;;5114796;28;20770;-74
2023/02/12 08:09:35;;;;;;;19.58;13.27;;;4.80;99.90;;;;;;5111305;28;20430;-75
2023/02/12 08:12:02;;;;;;;19.55;13.65;;;4.90;99.90;;;;;;5111130;28;20273;-74
2023/02/12 08:14:30;;;;;;;19.50;12.70;;;4.90;99.90;;;;;;5113852;28;20202;-74
2023/02/12 08:16:57;;;;;;;20.13;13.48;;;4.90;99.90;;;;;;5114005;28;20219;-74
2023/02/12 08:19:24;;;;;;;17.45;12.80;;;4.90;99.90;;;;;;5113715;28;20207;-74
2023/02/12 08:21:51;;;;;;;19.15;12.65;;;5.00;99.90;;;;;;5113962;28;20228;-74
2023/02/12 08:24:18;;;;;;;21.13;13.52;;;5.10;99.90;;;;;;5113708;28;20670;-74
2023/02/12 08:26:45;;;;;;;23.75;15.27;;;5.10;99.90;;;;;;5113800;28;20225;-74
2023/02/12 08:29:14;;;;;;;19.67;13.05;;;5.10;99.90;;;;;;5114153;28;20203;-72
2023/02/12 08:31:44;;;;;;;17.80;12.63;;;5.20;99.90;;;;;;5113607;28;20203;-72
2023/02/12 08:34:17;;;;;;;19.23;13.35;;;5.30;99.90;;;;;;5113820;28;20285;-73
2023/02/12 08:36:44;;;;;;;21.88;13.48;;;5.30;99.90;;;;;;5113803;28;20227;-72
2023/02/12 08:39:12;;;;;;;17.85;12.00;;;5.40;99.90;;;;;;5113933;28;20206;-72
2023/02/12 08:41:41;;;;;;;18.52;13.35;;;5.40;99.90;;;;;;5114029;28;20293;-71
2023/02/12 08:44:08;;;;;;;20.98;13.68;;;5.50;99.90;;;;;;5112833;28;20322;-73
2023/02/12 08:46:37;;;;;;;21.83;15.60;;;5.40;99.90;;;;;;5114031;28;20227;-73
2023/02/12 08:49:08;;;;;;;23.33;14.48;;;5.40;99.90;;;;;;5113462;28;20207;-74
2023/02/12 08:51:37;;;;;;;24.38;15.00;;;5.50;99.90;;;;;;5113916;28;20203;-73
2023/02/12 08:54:06;;;;;;;23.52;17.73;;;5.50;99.90;;;;;;5111994;28;20483;-73
2023/02/12 08:56:34;;;;;;;22.25;15.70;;;5.60;99.90;;;;;;5112815;27;20222;-73
2023/02/12 08:59:03;;;;;;;25.15;16.15;;;5.70;99.90;;;;;;5113460;28;20194;-73
2023/02/12 09:01:32;;;;;;;20.05;13.73;;;5.80;99.90;;;;;;5113483;28;20689;-74
2023/02/12 09:04:01;;;;;;;22.77;14.70;;;5.90;99.90;;;;;;5113389;28;20290;-73
2023/02/12 09:06:31;;;;;;;23.83;15.15;;;6.00;99.90;;;;;;5113363;28;20709;-73
2023/02/12 09:08:58;;;;;;;24.35;16.15;;;6.10;99.90;;;;;;5109616;28;20206;-73
2023/02/12 09:11:30;;;;;;;24.20;14.70;;;6.30;99.90;;;;;;5113486;28;20199;-73
2023/02/12 09:13:58;;;;;;;24.98;15.02;;;6.30;99.90;;;;;;5113139;28;20634;-73
2023/02/12 09:16:25;;;;;;;24.80;15.43;;;6.40;99.90;;;;;;5112770;28;20737;-73
2023/02/12 09:18:52;;;;;;;20.70;15.10;;;6.40;99.90;;;;;;5106393;28;20575;-74
2023/02/12 09:21:19;;;;;;;22.08;15.25;;;6.40;99.90;;;;;;5111958;28;20206;-74
2023/02/12 09:23:47;;;;;;;24.33;16.42;;;6.50;99.90;;;;;;5096739;28;20241;-73
2023/02/12 09:26:19;;;;;;;27.92;17.48;;;6.50;99.90;;;;;;5089713;28;20626;-74
2023/02/12 09:28:47;;;;;;;30.98;15.80;;;6.50;99.90;;;;;;5093909;28;20211;-74
2023/02/12 09:31:16;;;;;;;25.58;13.88;;;6.50;99.90;;;;;;5100673;28;20282;-74
2023/02/12 09:33:44;;;;;;;27.13;16.85;;;6.50;99.90;;;;;;5109774;27;20225;-74
2023/02/12 09:36:13;;;;;;;22.00;14.52;;;6.60;99.90;;;;;;5111373;27;20237;-74
2023/02/12 09:38:39;;;;;;;22.77;14.00;;;6.70;99.90;;;;;;5111923;28;20580;-75
2023/02/12 09:41:24;;;;;;;21.83;13.50;;;6.80;99.90;;;;;;5112002;28;20211;-74
2023/02/12 09:43:55;;;;;;;15.90;12.27;;;6.90;99.90;;;;;;5111741;28;20207;-75
2023/02/12 09:46:29;;;;;;;19.80;11.45;;;7.00;99.90;;;;;;5111466;27;20565;-74
2023/02/12 09:49:07;;;;;;;18.85;11.85;;;7.00;99.90;;;;;;5111846;28;20260;-74
2023/02/12 09:51:34;;;;;;;14.68;10.35;;;7.10;99.90;;;;;;5111807;28;20203;-74
2023/02/12 09:54:04;;;;;;;12.38;8.60;;;7.20;99.90;;;;;;5110498;28;20699;-74
2023/02/12 09:56:35;;;;;;;10.77;7.32;;;7.20;99.90;;;;;;5110980;28;20231;-73
2023/02/12 09:59:06;;;;;;;12.25;9.00;;;7.10;99.90;;;;;;5106408;28;20208;-73
2023/02/12 10:01:33;;;;;;;11.18;7.45;;;7.00;99.90;;;;;;5089973;28;20257;-74
2023/02/12 10:04:03;;;;;;;13.60;8.68;;;7.00;99.90;;;;;;5091390;28;20207;-73
2023/02/12 10:06:35;;;;;;;7.13;5.55;;;7.00;99.90;;;;;;5091189;28;20812;-73
2023/02/12 10:09:22;;;;;;;13.02;7.93;;;7.20;99.90;;;;;;5090711;28;20200;-73
2023/02/12 10:12:00;;;;;;;9.40;6.10;;;7.30;99.90;;;;;;5091298;28;20226;-73
2023/02/12 10:14:51;;;;;;;8.60;6.40;;;7.40;99.90;;;;;;5097978;28;20207;-73
2023/02/12 10:17:26;;;;;;;6.60;5.80;;;7.30;99.90;;;;;;5108316;28;20664;-73
2023/02/12 10:20:15;;;;;;;9.02;4.63;;;7.30;99.90;;;;;;5111964;28;20194;-73
2023/02/12 10:22:52;;;;;;;8.07;3.63;;;7.30;99.90;;;;;;5091369;28;20238;-73
2023/02/12 10:25:28;;;;;;;7.25;5.43;;;7.40;99.90;;;;;;5091230;28;20195;-73
2023/02/12 10:27:59;;;;;;;9.43;6.10;;;7.40;99.90;;;;;;5092031;28;20563;-73
2023/02/12 10:30:35;;;;;;;4.82;4.40;;;7.50;99.90;;;;;;5091558;28;20207;-73
2023/02/12 10:33:06;;;;;;;6.80;4.40;;;7.60;99.90;;;;;;5105853;28;20285;-73
2023/02/12 10:35:35;;;;;;;9.23;5.53;;;7.60;99.90;;;;;;5113947;28;20230;-74
2023/02/12 10:38:07;;;;;;;6.57;4.70;;;7.50;99.90;;;;;;5113385;28;20214;-74
2023/02/12 10:40:37;;;;;;;8.77;5.40;;;7.50;99.90;;;;;;5112355;28;20198;-73
2023/02/12 10:43:09;;;;;;;7.72;5.13;;;7.40;99.90;;;;;;5111915;28;20221;-73
2023/02/12 10:45:41;;;;;;;10.65;5.93;;;7.30;99.90;;;;;;5112257;28;20190;-74
2023/02/12 10:48:15;;;;;;;7.30;5.22;;;7.30;99.90;;;;;;5111535;28;20198;-74
2023/02/12 10:50:51;;;;;;;10.20;5.47;;;7.30;99.90;;;;;;5113102;28;20263;-74
2023/02/12 10:53:21;;;;;;;6.53;4.70;;;7.40;99.90;;;;;;5112542;28;20252;-74
2023/02/12 10:55:50;;;;;;;7.47;5.00;;;7.60;99.90;;;;;;5111014;28;20214;-74
2023/02/12 10:58:25;;;;;;;6.50;5.00;;;7.70;99.90;;;;;;5110686;28;20742;-74
2023/02/12 11:01:16;;;;;;;7.75;4.40;;;7.90;99.90;;;;;;5110403;28;20372;-73
2023/02/12 11:03:43;;;;;;;8.40;4.93;;;8.00;99.90;;;;;;5111072;28;20195;-73
2023/02/12 11:06:18;;;;;;;6.72;4.80;;;8.00;99.90;;;;;;5110745;28;20336;-74
2023/02/12 11:08:45;;;;;;;6.40;4.30;;;8.00;99.90;;;;;;5111303;28;20199;-74
2023/02/12 11:11:15;;;;;;;5.28;4.22;;;7.90;99.90;;;;;;5108895;28;20392;-74
2023/02/12 11:13:57;;;;;;;4.53;3.47;;;7.90;99.90;;;;;;5110497;28;20191;-74
2023/02/12 11:16:29;;;;;;;6.18;4.53;;;7.70;99.90;;;;;;5110113;28;20705;-74
2023/02/12 11:19:00;;;;;;;5.75;4.38;;;7.60;99.90;;;;;;5110277;28;20195;-74
2023/02/12 11:21:26;;;;;;;8.23;3.95;;;7.50;99.90;;;;;;5110980;28;20210;-73
2023/02/12 11:23:53;;;;;;;5.03;4.03;;;7.60;99.90;;;;;;5109149;28;20203;-73
2023/02/12 11:26:28;;;;;;;5.70;3.75;;;7.70;99.90;;;;;;5110489;28;20244;-73
2023/02/12 11:29:02;;;;;;;6.60;4.15;;;7.80;99.90;;;;;;5109004;28;20205;-73
2023/02/12 11:31:30;;;;;;;7.28;5.13;;;7.80;99.90;;;;;;5109526;28;20720;-73
2023/02/12 11:34:09;;;;;;;5.47;4.70;;;7.70;99.90;;;;;;5107369;28;20206;-74
2023/02/12 11:36:37;;;;;;;6.13;4.68;;;7.70;99.90;;;;;;5095946;28;20231;-75
2023/02/12 11:39:06;;;;;;;4.82;4.28;;;7.80;99.90;;;;;;5109179;28;20195;-74
2023/02/12 11:41:35;;;;;;;7.47;4.97;;;7.90;99.90;;;;;;5103511;28;20290;-75
2023/02/12 11:44:10;;;;;;;6.35;4.50;;;8.00;99.90;;;;;;5108320;28;20298;-74
2023/02/12 11:46:37;;;;;;;6.95;5.13;;;8.00;99.90;;;;;;5108704;28;20242;-74
2023/02/12 11:49:08;;;;;;;8.23;5.03;;;8.00;99.90;;;;;;5109734;28;20689;-73
2023/02/12 11:51:38;;;;;;;10.75;5.90;;;7.90;99.90;;;;;;5109555;28;20650;-74
2023/02/12 11:54:06;;;;;;;5.55;4.40;;;7.90;99.90;;;;;;5108394;28;20233;-74
2023/02/12 11:56:43;;;;;;;6.15;4.28;;;7.90;99.90;;;;;;5109509;28;20345;-75
2023/02/12 11:59:22;;;;;;;4.60;3.97;;;7.90;99.90;;;;;;5109407;28;20209;-73
2023/02/12 12:01:53;;;;;;;7.40;4.95;;;8.00;99.90;;;;;;5110195;28;20194;-73
2023/02/12 12:04:22;;;;;;;6.13;4.75;;;7.80;99.90;;;;;;5110455;28;20201;-74
2023/02/12 12:06:54;;;;;;;5.60;4.35;;;7.80;99.90;;;;;;5109676;28;20225;-74
2023/02/12 12:09:25;;;;;;;4.90;3.97;;;7.80;99.90;;;;;;5110793;28;20202;-74
2023/02/12 12:11:58;;;;;;;8.07;6.05;;;7.80;99.90;;;;;;5109913;28;20202;-74
2023/02/12 12:14:29;;;;;;;7.80;4.63;;;7.90;99.90;;;;;;5110360;28;20219;-74
2023/02/12 12:19:55;;;;;;;6.82;4.35;;;8.00;99.90;;;;;;5110685;28;20214;-74
2023/02/12 12:22:44;;;;;;;4.47;3.60;;;8.20;99.90;;;;;;5109631;28;20187;-74
2023/02/12 12:25:18;;;;;;;7.22;5.28;;;8.20;99.90;;;;;;5108458;28;20203;-73
2023/02/12 12:28:02;;;;;;;5.38;3.65;;;8.10;99.90;;;;;;5110445;28;20219;-74
2023/02/12 12:30:50;;;;;;;4.63;3.67;;;8.00;99.90;;;;;;5109292;28;20206;-74
2023/02/12 12:33:24;;;;;;;5.82;4.00;;;7.90;99.90;;;;;;5110916;28;20195;-74
2023/02/12 12:36:14;;;;;;;8.80;4.93;;;7.90;99.90;;;;;;5109316;28;20293;-74
2023/02/12 12:38:52;;;;;;;6.93;4.60;;;7.80;99.90;;;;;;5107368;28;20203;-73
2023/02/12 12:41:27;;;;;;;5.10;3.95;;;7.80;99.90;;;;;;5109958;28;20191;-74
2023/02/12 12:44:04;;;;;;;8.95;4.13;;;7.90;99.90;;;;;;5111957;28;20593;-74
2023/02/12 12:46:56;;;;;;;5.57;3.90;;;7.90;99.90;;;;;;5113434;28;20211;-74
2023/02/12 12:49:51;;;;;;;4.88;3.70;;;8.10;99.90;;;;;;5114106;28;20225;-74
2023/02/12 12:52:40;;;;;;;6.60;4.22;;;8.30;99.90;;;;;;5112819;27;20685;-75
2023/02/12 12:55:27;;;;;;;4.82;3.40;;;8.40;99.90;;;;;;5102380;28;20642;-74
2023/02/12 12:58:00;;;;;;;5.60;4.55;;;8.40;99.90;;;;;;5113378;28;20636;-75
2023/02/12 13:00:50;;;;;;;4.65;3.97;;;8.40;99.90;;;;;;5112630;28;20832;-74
2023/02/12 13:03:38;;;;;;;5.65;3.80;;;8.50;99.90;;;;;;5111830;28;20263;-74
2023/02/12 13:06:32;;;;;;;6.85;4.40;;;8.70;99.90;;;;;;5106522;28;20622;-75